sensor_id;sensor_type;location;lat;lon;timestamp;P1;durP1;ratioP1;P2;durP2;ratioP2
4636;SDS011;2331;48.806;9.140;2023-09-18T00:01:12;8.80;;;2.97;;
4636;SDS011;2331;48.806;9.140;2023-09-18T00:03:39;5.30;;;2.90;;
4636;SDS011;2331;48.806;9.140;2023-09-18T00:06:06;8.53;;;3.23;;
4636;SDS011;2331;48.806;9.140;2023-09-18T00:08:33;7.73;;;3.50;;
4636;SDS011;2331;48.806;9.140;2023-09-18T00:11:02;6.63;;;3.00;;
4636;SDS011;2331;48.806;9.140;2023-09-18T00:13:28;6.60;;;3.40;;
4636;SDS011;2331;48.806;9.140;2023-09-18T00:15:55;5.97;;;3.23;;
4636;SDS011;2331;48.806;9.140;2023-09-18T00:18:24;4.90;;;2.77;;
4636;SDS011;2331;48.806;9.140;2023-09-18T00:20:51;4.97;;;3.20;;
4636;SDS011;2331;48.806;9.140;2023-09-18T00:23:18;6.17;;;3.07;;
4636;SDS011;2331;48.806;9.140;2023-09-18T00:25:45;5.10;;;2.80;;
4636;SDS011;2331;48.806;9.140;2023-09-18T00:28:13;5.87;;;2.87;;
4636;SDS011;2331;48.806;9.140;2023-09-18T00:30:42;6.30;;;3.80;;
4636;SDS011;2331;48.806;9.140;2023-09-18T00:33:14;4.73;;;2.90;;
4636;SDS011;2331;48.806;9.140;2023-09-18T00:35:41;5.10;;;2.97;;
4636;SDS011;2331;48.806;9.140;2023-09-18T00:38:11;4.40;;;2.90;;
4636;SDS011;2331;48.806;9.140;2023-09-18T00:40:38;5.03;;;3.50;;
4636;SDS011;2331;48.806;9.140;2023-09-18T00:43:05;5.43;;;3.40;;
4636;SDS011;2331;48.806;9.140;2023-09-18T00:45:33;5.70;;;3.93;;
4636;SDS011;2331;48.806;9.140;2023-09-18T00:48:02;7.63;;;3.77;;
4636;SDS011;2331;48.806;9.140;2023-09-18T00:50:29;5.33;;;3.20;;
4636;SDS011;2331;48.806;9.140;2023-09-18T00:52:56;6.00;;;3.83;;
4636;SDS011;2331;48.806;9.140;2023-09-18T00:55:24;5.20;;;3.27;;
4636;SDS011;2331;48.806;9.140;2023-09-18T00:57:51;4.80;;;3.20;;
4636;SDS011;2331;48.806;9.140;2023-09-18T01:00:16;6.73;;;4.17;;
4636;SDS011;2331;48.806;9.140;2023-09-18T01:02:44;4.90;;;3.10;;
4636;SDS011;2331;48.806;9.140;2023-09-18T01:05:11;4.70;;;2.97;;
4636;SDS011;2331;48.806;9.140;2023-09-18T01:07:41;9.43;;;2.80;;
4636;SDS011;2331;48.806;9.140;2023-09-18T01:10:09;5.03;;;3.10;;
4636;SDS011;2331;48.806;9.140;2023-09-18T01:12:42;5.53;;;3.20;;
4636;SDS011;2331;48.806;9.140;2023-09-18T01:15:18;5.13;;;2.83;;
4636;SDS011;2331;48.806;9.140;2023-09-18T01:17:50;6.67;;;2.93;;
4636;SDS011;2331;48.806;9.140;2023-09-18T01:20:17;4.97;;;3.33;;
4636;SDS011;2331;48.806;9.140;2023-09-18T01:22:45;7.43;;;3.20;;
4636;SDS011;2331;48.806;9.140;2023-09-18T01:25:14;5.73;;;3.40;;
4636;SDS011;2331;48.806;9.140;2023-09-18T01:27:40;5.30;;;2.67;;
4636;SDS011;2331;48.806;9.140;2023-09-18T01:30:08;4.23;;;2.83;;
4636;SDS011;2331;48.806;9.140;2023-09-18T01:32:35;5.90;;;3.17;;
4636;SDS011;2331;48.806;9.140;2023-09-18T01:35:03;4.20;;;2.90;;
4636;SDS011;2331;48.806;9.140;2023-09-18T01:37:32;6.07;;;3.27;;
4636;SDS011;2331;48.806;9.140;2023-09-18T01:40:02;4.20;;;2.70;;
4636;SDS011;2331;48.806;9.140;2023-09-18T01:42:32;5.53;;;3.20;;
4636;SDS011;2331;48.806;9.140;2023-09-18T01:45:00;6.10;;;3.23;;
4636;SDS011;2331;48.806;9.140;2023-09-18T01:47:27;5.23;;;2.93;;
4636;SDS011;2331;48.806;9.140;2023-09-18T01:49:54;8.13;;;2.97;;
4636;SDS011;2331;48.806;9.140;2023-09-18T01:52:21;5.53;;;2.80;;
4636;SDS011;2331;48.806;9.140;2023-09-18T01:54:48;6.50;;;2.70;;
4636;SDS011;2331;48.806;9.140;2023-09-18T01:57:16;4.87;;;2.37;;
4636;SDS011;2331;48.806;9.140;2023-09-18T01:59:43;6.73;;;2.63;;
4636;SDS011;2331;48.806;9.140;2023-09-18T02:02:10;11.30;;;3.77;;
4636;SDS011;2331;48.806;9.140;2023-09-18T02:04:37;8.10;;;3.13;;
4636;SDS011;2331;48.806;9.140;2023-09-18T02:07:05;12.33;;;2.97;;
4636;SDS011;2331;48.806;9.140;2023-09-18T02:09:32;12.20;;;2.97;;
4636;SDS011;2331;48.806;9.140;2023-09-18T02:11:59;9.10;;;2.50;;
4636;SDS011;2331;48.806;9.140;2023-09-18T02:14:27;10.70;;;3.57;;
4636;SDS011;2331;48.806;9.140;2023-09-18T02:16:55;8.47;;;2.47;;
4636;SDS011;2331;48.806;9.140;2023-09-18T02:19:22;6.73;;;2.30;;
4636;SDS011;2331;48.806;9.140;2023-09-18T02:21:49;6.50;;;2.83;;
4636;SDS011;2331;48.806;9.140;2023-09-18T02:24:16;7.03;;;2.90;;
4636;SDS011;2331;48.806;9.140;2023-09-18T02:26:43;8.30;;;3.30;;
4636;SDS011;2331;48.806;9.140;2023-09-18T02:29:10;5.93;;;2.37;;
4636;SDS011;2331;48.806;9.140;2023-09-18T02:31:40;8.07;;;2.70;;
4636;SDS011;2331;48.806;9.140;2023-09-18T02:34:07;8.10;;;2.57;;
4636;SDS011;2331;48.806;9.140;2023-09-18T02:36:34;7.57;;;2.73;;
4636;SDS011;2331;48.806;9.140;2023-09-18T02:39:01;8.80;;;2.97;;
4636;SDS011;2331;48.806;9.140;2023-09-18T02:41:28;19.37;;;3.67;;
4636;SDS011;2331;48.806;9.140;2023-09-18T02:43:55;10.10;;;2.63;;
4636;SDS011;2331;48.806;9.140;2023-09-18T02:46:22;14.87;;;4.10;;
4636;SDS011;2331;48.806;9.140;2023-09-18T02:48:50;8.20;;;3.20;;
4636;SDS011;2331;48.806;9.140;2023-09-18T02:51:16;15.77;;;3.63;;
4636;SDS011;2331;48.806;9.140;2023-09-18T02:53:43;12.03;;;3.03;;
4636;SDS011;2331;48.806;9.140;2023-09-18T02:56:10;15.90;;;3.30;;
4636;SDS011;2331;48.806;9.140;2023-09-18T02:58:37;15.83;;;3.50;;
4636;SDS011;2331;48.806;9.140;2023-09-18T03:01:03;11.40;;;2.63;;
4636;SDS011;2331;48.806;9.140;2023-09-18T03:03:33;11.40;;;3.10;;
4636;SDS011;2331;48.806;9.140;2023-09-18T03:06:01;13.93;;;3.20;;
4636;SDS011;2331;48.806;9.140;2023-09-18T03:08:29;6.60;;;2.53;;
4636;SDS011;2331;48.806;9.140;2023-09-18T03:10:55;13.30;;;3.63;;
4636;SDS011;2331;48.806;9.140;2023-09-18T03:13:22;9.30;;;2.77;;
4636;SDS011;2331;48.806;9.140;2023-09-18T03:15:49;6.60;;;2.77;;
4636;SDS011;2331;48.806;9.140;2023-09-18T03:18:16;7.97;;;2.80;;
4636;SDS011;2331;48.806;9.140;2023-09-18T03:20:43;10.77;;;2.80;;
4636;SDS011;2331;48.806;9.140;2023-09-18T03:23:11;12.47;;;3.30;;
4636;SDS011;2331;48.806;9.140;2023-09-18T03:25:39;11.83;;;2.93;;
4636;SDS011;2331;48.806;9.140;2023-09-18T03:28:06;10.23;;;3.00;;
4636;SDS011;2331;48.806;9.140;2023-09-18T03:30:32;13.13;;;3.50;;
4636;SDS011;2331;48.806;9.140;2023-09-18T03:32:59;8.60;;;3.10;;
4636;SDS011;2331;48.806;9.140;2023-09-18T03:35:28;10.87;;;3.17;;
4636;SDS011;2331;48.806;9.140;2023-09-18T03:37:57;8.20;;;3.17;;
4636;SDS011;2331;48.806;9.140;2023-09-18T03:40:25;7.80;;;3.13;;
4636;SDS011;2331;48.806;9.140;2023-09-18T03:42:52;8.60;;;2.70;;
4636;SDS011;2331;48.806;9.140;2023-09-18T03:45:19;8.37;;;3.27;;
4636;SDS011;2331;48.806;9.140;2023-09-18T03:47:45;7.97;;;2.87;;
4636;SDS011;2331;48.806;9.140;2023-09-18T03:50:15;7.97;;;2.77;;
4636;SDS011;2331;48.806;9.140;2023-09-18T03:52:41;15.93;;;3.20;;
4636;SDS011;2331;48.806;9.140;2023-09-18T03:55:08;7.03;;;2.43;;
4636;SDS011;2331;48.806;9.140;2023-09-18T03:57:36;10.77;;;3.57;;
4636;SDS011;2331;48.806;9.140;2023-09-18T04:00:05;9.67;;;2.97;;
4636;SDS011;2331;48.806;9.140;2023-09-18T04:02:33;9.80;;;2.87;;
4636;SDS011;2331;48.806;9.140;2023-09-18T04:05:00;13.87;;;3.10;;
4636;SDS011;2331;48.806;9.140;2023-09-18T04:07:28;7.00;;;2.67;;
4636;SDS011;2331;48.806;9.140;2023-09-18T04:09:55;10.10;;;3.07;;
4636;SDS011;2331;48.806;9.140;2023-09-18T04:12:21;11.17;;;3.97;;
4636;SDS011;2331;48.806;9.140;2023-09-18T04:14:50;11.70;;;3.20;;
4636;SDS011;2331;48.806;9.140;2023-09-18T04:17:16;15.00;;;3.57;;
4636;SDS011;2331;48.806;9.140;2023-09-18T04:19:43;13.90;;;3.60;;
4636;SDS011;2331;48.806;9.140;2023-09-18T04:22:10;12.50;;;3.53;;
4636;SDS011;2331;48.806;9.140;2023-09-18T04:24:38;10.60;;;3.40;;
4636;SDS011;2331;48.806;9.140;2023-09-18T04:27:05;15.27;;;3.20;;
4636;SDS011;2331;48.806;9.140;2023-09-18T04:29:32;12.00;;;3.13;;
4636;SDS011;2331;48.806;9.140;2023-09-18T04:32:01;8.83;;;3.47;;
4636;SDS011;2331;48.806;9.140;2023-09-18T04:34:30;9.00;;;2.90;;
4636;SDS011;2331;48.806;9.140;2023-09-18T04:36:57;9.17;;;3.30;;
4636;SDS011;2331;48.806;9.140;2023-09-18T04:39:23;11.03;;;3.20;;
4636;SDS011;2331;48.806;9.140;2023-09-18T04:41:50;5.93;;;2.90;;
4636;SDS011;2331;48.806;9.140;2023-09-18T04:44:17;13.63;;;3.47;;
4636;SDS011;2331;48.806;9.140;2023-09-18T04:46:44;10.87;;;3.70;;
4636;SDS011;2331;48.806;9.140;2023-09-18T04:49:12;14.20;;;3.70;;
4636;SDS011;2331;48.806;9.140;2023-09-18T04:51:40;9.13;;;3.30;;
4636;SDS011;2331;48.806;9.140;2023-09-18T04:54:07;11.30;;;3.60;;
4636;SDS011;2331;48.806;9.140;2023-09-18T04:56:34;11.00;;;3.80;;
4636;SDS011;2331;48.806;9.140;2023-09-18T04:59:02;9.40;;;3.20;;
4636;SDS011;2331;48.806;9.140;2023-09-18T05:01:29;7.90;;;3.00;;
4636;SDS011;2331;48.806;9.140;2023-09-18T05:03:57;10.80;;;2.87;;
4636;SDS011;2331;48.806;9.140;2023-09-18T05:06:25;9.80;;;3.00;;
4636;SDS011;2331;48.806;9.140;2023-09-18T05:08:52;5.50;;;3.00;;
4636;SDS011;2331;48.806;9.140;2023-09-18T05:11:19;9.50;;;3.20;;
4636;SDS011;2331;48.806;9.140;2023-09-18T05:13:46;14.43;;;3.33;;
4636;SDS011;2331;48.806;9.140;2023-09-18T05:16:13;6.20;;;2.97;;
4636;SDS011;2331;48.806;9.140;2023-09-18T05:18:39;9.30;;;2.53;;
4636;SDS011;2331;48.806;9.140;2023-09-18T05:21:07;11.30;;;3.20;;
4636;SDS011;2331;48.806;9.140;2023-09-18T05:23:36;9.67;;;3.10;;
4636;SDS011;2331;48.806;9.140;2023-09-18T05:26:03;9.37;;;2.97;;
4636;SDS011;2331;48.806;9.140;2023-09-18T05:28:30;12.20;;;3.40;;
4636;SDS011;2331;48.806;9.140;2023-09-18T05:30:57;11.80;;;2.90;;
4636;SDS011;2331;48.806;9.140;2023-09-18T05:33:24;15.03;;;4.23;;
4636;SDS011;2331;48.806;9.140;2023-09-18T05:35:51;9.33;;;3.40;;
4636;SDS011;2331;48.806;9.140;2023-09-18T05:38:18;9.13;;;3.27;;
4636;SDS011;2331;48.806;9.140;2023-09-18T05:40:45;14.23;;;3.43;;
4636;SDS011;2331;48.806;9.140;2023-09-18T05:43:12;7.67;;;2.90;;
4636;SDS011;2331;48.806;9.140;2023-09-18T05:45:40;6.47;;;2.97;;
4636;SDS011;2331;48.806;9.140;2023-09-18T05:48:07;6.50;;;2.70;;
4636;SDS011;2331;48.806;9.140;2023-09-18T05:50:34;9.70;;;3.27;;
4636;SDS011;2331;48.806;9.140;2023-09-18T05:53:02;10.37;;;2.63;;
4636;SDS011;2331;48.806;9.140;2023-09-18T05:55:29;9.43;;;3.20;;
4636;SDS011;2331;48.806;9.140;2023-09-18T05:57:58;10.10;;;3.00;;
4636;SDS011;2331;48.806;9.140;2023-09-18T06:00:26;9.83;;;2.93;;
4636;SDS011;2331;48.806;9.140;2023-09-18T06:02:55;6.27;;;3.03;;
4636;SDS011;2331;48.806;9.140;2023-09-18T06:05:23;7.50;;;3.10;;
4636;SDS011;2331;48.806;9.140;2023-09-18T06:07:50;10.10;;;2.90;;
4636;SDS011;2331;48.806;9.140;2023-09-18T06:10:18;10.17;;;3.10;;
4636;SDS011;2331;48.806;9.140;2023-09-18T06:12:45;9.40;;;3.30;;
4636;SDS011;2331;48.806;9.140;2023-09-18T06:15:13;8.30;;;3.30;;
4636;SDS011;2331;48.806;9.140;2023-09-18T06:17:40;10.13;;;2.70;;
4636;SDS011;2331;48.806;9.140;2023-09-18T06:20:08;8.40;;;3.00;;
4636;SDS011;2331;48.806;9.140;2023-09-18T06:22:37;8.57;;;3.20;;
4636;SDS011;2331;48.806;9.140;2023-09-18T06:25:05;10.10;;;3.03;;
4636;SDS011;2331;48.806;9.140;2023-09-18T06:27:33;8.03;;;2.70;;
4636;SDS011;2331;48.806;9.140;2023-09-18T06:30:01;7.20;;;2.57;;
4636;SDS011;2331;48.806;9.140;2023-09-18T06:32:29;11.13;;;2.30;;
4636;SDS011;2331;48.806;9.140;2023-09-18T06:34:56;8.60;;;2.97;;
4636;SDS011;2331;48.806;9.140;2023-09-18T06:37:23;11.00;;;2.73;;
4636;SDS011;2331;48.806;9.140;2023-09-18T06:39:50;8.73;;;3.07;;
4636;SDS011;2331;48.806;9.140;2023-09-18T06:42:17;12.97;;;2.93;;
4636;SDS011;2331;48.806;9.140;2023-09-18T06:44:44;5.53;;;3.00;;
4636;SDS011;2331;48.806;9.140;2023-09-18T06:47:11;6.87;;;2.80;;
4636;SDS011;2331;48.806;9.140;2023-09-18T06:49:41;7.90;;;2.20;;
4636;SDS011;2331;48.806;9.140;2023-09-18T06:52:08;6.70;;;2.03;;
4636;SDS011;2331;48.806;9.140;2023-09-18T06:54:35;10.50;;;2.83;;
4636;SDS011;2331;48.806;9.140;2023-09-18T06:57:02;7.67;;;2.57;;
4636;SDS011;2331;48.806;9.140;2023-09-18T06:59:29;6.93;;;2.17;;
4636;SDS011;2331;48.806;9.140;2023-09-18T07:01:57;6.30;;;2.10;;
4636;SDS011;2331;48.806;9.140;2023-09-18T07:04:24;5.57;;;2.27;;
4636;SDS011;2331;48.806;9.140;2023-09-18T07:06:52;9.30;;;2.27;;
4636;SDS011;2331;48.806;9.140;2023-09-18T07:09:19;6.13;;;1.83;;
4636;SDS011;2331;48.806;9.140;2023-09-18T07:11:48;6.90;;;2.30;;
4636;SDS011;2331;48.806;9.140;2023-09-18T07:14:14;4.37;;;1.33;;
4636;SDS011;2331;48.806;9.140;2023-09-18T07:16:41;4.73;;;1.73;;
4636;SDS011;2331;48.806;9.140;2023-09-18T07:19:08;3.77;;;1.40;;
4636;SDS011;2331;48.806;9.140;2023-09-18T07:22:36;6.50;;;1.80;;
4636;SDS011;2331;48.806;9.140;2023-09-18T07:25:04;6.10;;;1.40;;
4636;SDS011;2331;48.806;9.140;2023-09-18T07:27:32;5.17;;;1.30;;
4636;SDS011;2331;48.806;9.140;2023-09-18T07:30:01;6.53;;;1.53;;
4636;SDS011;2331;48.806;9.140;2023-09-18T07:32:29;5.43;;;1.60;;
4636;SDS011;2331;48.806;9.140;2023-09-18T07:34:56;6.37;;;1.80;;
4636;SDS011;2331;48.806;9.140;2023-09-18T07:37:23;4.97;;;1.40;;
4636;SDS011;2331;48.806;9.140;2023-09-18T07:39:51;6.20;;;1.40;;
4636;SDS011;2331;48.806;9.140;2023-09-18T07:42:18;4.00;;;1.40;;
4636;SDS011;2331;48.806;9.140;2023-09-18T07:44:45;13.50;;;1.57;;
4636;SDS011;2331;48.806;9.140;2023-09-18T07:47:11;5.40;;;1.20;;
4636;SDS011;2331;48.806;9.140;2023-09-18T07:49:38;4.33;;;1.17;;
4636;SDS011;2331;48.806;9.140;2023-09-18T07:52:05;2.93;;;1.20;;
4636;SDS011;2331;48.806;9.140;2023-09-18T07:54:32;2.70;;;1.07;;
4636;SDS011;2331;48.806;9.140;2023-09-18T07:57:00;3.27;;;1.03;;
4636;SDS011;2331;48.806;9.140;2023-09-18T07:59:26;4.50;;;1.30;;
4636;SDS011;2331;48.806;9.140;2023-09-18T08:01:54;3.97;;;1.03;;
4636;SDS011;2331;48.806;9.140;2023-09-18T08:04:23;5.73;;;1.30;;
4636;SDS011;2331;48.806;9.140;2023-09-18T08:06:50;4.87;;;1.30;;
4636;SDS011;2331;48.806;9.140;2023-09-18T08:09:17;7.97;;;1.83;;
4636;SDS011;2331;48.806;9.140;2023-09-18T08:11:43;2.80;;;1.37;;
4636;SDS011;2331;48.806;9.140;2023-09-18T08:14:11;3.90;;;1.20;;
4636;SDS011;2331;48.806;9.140;2023-09-18T08:16:38;4.10;;;1.27;;
4636;SDS011;2331;48.806;9.140;2023-09-18T08:19:05;7.00;;;1.33;;
4636;SDS011;2331;48.806;9.140;2023-09-18T08:21:32;2.80;;;1.43;;
4636;SDS011;2331;48.806;9.140;2023-09-18T08:23:59;2.93;;;1.13;;
4636;SDS011;2331;48.806;9.140;2023-09-18T08:26:26;4.77;;;1.23;;
4636;SDS011;2331;48.806;9.140;2023-09-18T08:28:53;6.07;;;1.50;;
4636;SDS011;2331;48.806;9.140;2023-09-18T08:31:21;7.37;;;1.53;;
4636;SDS011;2331;48.806;9.140;2023-09-18T08:33:49;4.67;;;1.30;;
4636;SDS011;2331;48.806;9.140;2023-09-18T08:36:16;3.23;;;1.10;;
4636;SDS011;2331;48.806;9.140;2023-09-18T08:38:42;4.07;;;1.30;;
4636;SDS011;2331;48.806;9.140;2023-09-18T08:41:11;5.90;;;1.40;;
4636;SDS011;2331;48.806;9.140;2023-09-18T08:43:38;5.23;;;1.93;;
4636;SDS011;2331;48.806;9.140;2023-09-18T08:46:09;5.67;;;1.37;;
4636;SDS011;2331;48.806;9.140;2023-09-18T08:48:38;4.37;;;1.23;;
4636;SDS011;2331;48.806;9.140;2023-09-18T08:51:06;3.87;;;1.20;;
4636;SDS011;2331;48.806;9.140;2023-09-18T08:53:35;4.70;;;1.20;;
4636;SDS011;2331;48.806;9.140;2023-09-18T08:56:04;4.73;;;1.43;;
4636;SDS011;2331;48.806;9.140;2023-09-18T08:58:31;3.67;;;1.00;;
4636;SDS011;2331;48.806;9.140;2023-09-18T09:01:00;6.93;;;1.40;;
4636;SDS011;2331;48.806;9.140;2023-09-18T09:03:28;5.20;;;1.67;;
4636;SDS011;2331;48.806;9.140;2023-09-18T09:05:57;5.90;;;1.40;;
4636;SDS011;2331;48.806;9.140;2023-09-18T09:08:26;3.53;;;1.50;;
4636;SDS011;2331;48.806;9.140;2023-09-18T09:10:53;3.47;;;1.17;;
4636;SDS011;2331;48.806;9.140;2023-09-18T09:13:22;4.57;;;1.07;;
4636;SDS011;2331;48.806;9.140;2023-09-18T09:15:51;6.50;;;1.30;;
4636;SDS011;2331;48.806;9.140;2023-09-18T09:18:21;6.40;;;1.37;;
4636;SDS011;2331;48.806;9.140;2023-09-18T09:20:52;4.37;;;1.20;;
4636;SDS011;2331;48.806;9.140;2023-09-18T09:23:24;7.40;;;1.50;;
4636;SDS011;2331;48.806;9.140;2023-09-18T09:25:52;3.17;;;1.00;;
4636;SDS011;2331;48.806;9.140;2023-09-18T09:28:28;6.50;;;1.33;;
4636;SDS011;2331;48.806;9.140;2023-09-18T09:30:59;3.30;;;1.27;;
4636;SDS011;2331;48.806;9.140;2023-09-18T09:33:27;3.77;;;1.30;;
4636;SDS011;2331;48.806;9.140;2023-09-18T09:35:54;3.33;;;1.07;;
4636;SDS011;2331;48.806;9.140;2023-09-18T09:38:27;3.30;;;1.40;;
4636;SDS011;2331;48.806;9.140;2023-09-18T09:40:58;3.70;;;1.47;;
4636;SDS011;2331;48.806;9.140;2023-09-18T09:43:26;3.63;;;1.20;;
4636;SDS011;2331;48.806;9.140;2023-09-18T09:45:56;4.40;;;1.57;;
4636;SDS011;2331;48.806;9.140;2023-09-18T09:48:24;4.43;;;1.53;;
4636;SDS011;2331;48.806;9.140;2023-09-18T09:50:51;4.40;;;1.30;;
4636;SDS011;2331;48.806;9.140;2023-09-18T09:53:20;6.10;;;1.20;;
4636;SDS011;2331;48.806;9.140;2023-09-18T09:56:13;4.80;;;1.30;;
4636;SDS011;2331;48.806;9.140;2023-09-18T09:58:50;3.80;;;1.43;;
4636;SDS011;2331;48.806;9.140;2023-09-18T10:01:28;7.43;;;1.40;;
4636;SDS011;2331;48.806;9.140;2023-09-18T10:03:57;3.43;;;1.50;;
4636;SDS011;2331;48.806;9.140;2023-09-18T10:06:25;3.30;;;1.30;;
4636;SDS011;2331;48.806;9.140;2023-09-18T10:08:58;3.97;;;1.50;;
4636;SDS011;2331;48.806;9.140;2023-09-18T10:11:25;5.73;;;1.20;;
4636;SDS011;2331;48.806;9.140;2023-09-18T10:13:55;3.53;;;1.30;;
4636;SDS011;2331;48.806;9.140;2023-09-18T10:16:25;3.30;;;1.13;;
4636;SDS011;2331;48.806;9.140;2023-09-18T10:19:00;3.10;;;1.53;;
4636;SDS011;2331;48.806;9.140;2023-09-18T10:21:35;4.90;;;1.47;;
4636;SDS011;2331;48.806;9.140;2023-09-18T10:24:19;6.03;;;1.87;;
4636;SDS011;2331;48.806;9.140;2023-09-18T10:26:51;8.50;;;1.80;;
4636;SDS011;2331;48.806;9.140;2023-09-18T10:29:23;4.23;;;1.80;;
4636;SDS011;2331;48.806;9.140;2023-09-18T10:31:51;7.97;;;1.90;;
4636;SDS011;2331;48.806;9.140;2023-09-18T10:34:19;5.30;;;1.40;;
4636;SDS011;2331;48.806;9.140;2023-09-18T10:36:47;6.50;;;1.87;;
4636;SDS011;2331;48.806;9.140;2023-09-18T10:39:15;3.90;;;1.40;;
4636;SDS011;2331;48.806;9.140;2023-09-18T10:41:47;3.40;;;1.30;;
4636;SDS011;2331;48.806;9.140;2023-09-18T10:44:15;6.27;;;2.07;;
4636;SDS011;2331;48.806;9.140;2023-09-18T10:46:42;3.50;;;1.50;;
4636;SDS011;2331;48.806;9.140;2023-09-18T10:49:09;7.20;;;1.60;;
4636;SDS011;2331;48.806;9.140;2023-09-18T10:51:37;5.27;;;1.80;;
4636;SDS011;2331;48.806;9.140;2023-09-18T10:54:07;5.30;;;1.67;;
4636;SDS011;2331;48.806;9.140;2023-09-18T10:56:36;3.97;;;1.60;;
4636;SDS011;2331;48.806;9.140;2023-09-18T10:59:05;3.90;;;1.40;;
4636;SDS011;2331;48.806;9.140;2023-09-18T11:01:34;3.90;;;1.60;;
4636;SDS011;2331;48.806;9.140;2023-09-18T11:04:05;6.50;;;2.13;;
4636;SDS011;2331;48.806;9.140;2023-09-18T11:09:32;5.03;;;1.50;;
4636;SDS011;2331;48.806;9.140;2023-09-18T11:12:14;4.77;;;1.60;;
4636;SDS011;2331;48.806;9.140;2023-09-18T11:14:43;3.97;;;1.50;;
4636;SDS011;2331;48.806;9.140;2023-09-18T11:17:27;5.50;;;1.57;;
4636;SDS011;2331;48.806;9.140;2023-09-18T11:20:01;3.97;;;1.43;;
4636;SDS011;2331;48.806;9.140;2023-09-18T11:22:34;4.37;;;1.20;;
4636;SDS011;2331;48.806;9.140;2023-09-18T11:28:03;3.13;;;1.53;;
4636;SDS011;2331;48.806;9.140;2023-09-18T11:30:33;3.40;;;1.23;;
4636;SDS011;2331;48.806;9.140;2023-09-18T11:33:01;3.80;;;1.40;;
4636;SDS011;2331;48.806;9.140;2023-09-18T11:35:30;3.27;;;1.20;;
4636;SDS011;2331;48.806;9.140;2023-09-18T11:38:04;4.27;;;1.20;;
4636;SDS011;2331;48.806;9.140;2023-09-18T11:40:33;4.83;;;1.60;;
4636;SDS011;2331;48.806;9.140;2023-09-18T11:43:21;4.67;;;1.70;;
4636;SDS011;2331;48.806;9.140;2023-09-18T11:45:50;4.87;;;1.27;;
4636;SDS011;2331;48.806;9.140;2023-09-18T11:48:19;3.43;;;1.17;;
4636;SDS011;2331;48.806;9.140;2023-09-18T11:50:48;4.47;;;1.40;;
4636;SDS011;2331;48.806;9.140;2023-09-18T11:53:15;3.90;;;1.40;;
4636;SDS011;2331;48.806;9.140;2023-09-18T11:55:44;6.33;;;1.70;;
4636;SDS011;2331;48.806;9.140;2023-09-18T11:58:11;3.00;;;1.10;;
4636;SDS011;2331;48.806;9.140;2023-09-18T12:00:39;4.90;;;1.60;;
4636;SDS011;2331;48.806;9.140;2023-09-18T12:03:18;7.80;;;1.10;;
4636;SDS011;2331;48.806;9.140;2023-09-18T12:05:54;5.00;;;1.33;;
4636;SDS011;2331;48.806;9.140;2023-09-18T12:08:22;4.03;;;1.40;;
4636;SDS011;2331;48.806;9.140;2023-09-18T12:10:51;5.33;;;1.27;;
4636;SDS011;2331;48.806;9.140;2023-09-18T12:13:19;3.43;;;1.80;;
4636;SDS011;2331;48.806;9.140;2023-09-18T12:15:47;2.93;;;1.03;;
4636;SDS011;2331;48.806;9.140;2023-09-18T12:18:14;2.73;;;1.20;;
4636;SDS011;2331;48.806;9.140;2023-09-18T12:20:46;2.50;;;1.10;;
4636;SDS011;2331;48.806;9.140;2023-09-18T12:23:13;2.40;;;1.13;;
4636;SDS011;2331;48.806;9.140;2023-09-18T12:25:41;4.07;;;1.23;;
4636;SDS011;2331;48.806;9.140;2023-09-18T12:28:10;4.70;;;1.40;;
4636;SDS011;2331;48.806;9.140;2023-09-18T12:30:37;4.30;;;1.20;;
4636;SDS011;2331;48.806;9.140;2023-09-18T12:33:06;2.93;;;1.20;;
4636;SDS011;2331;48.806;9.140;2023-09-18T12:35:33;4.77;;;1.70;;
4636;SDS011;2331;48.806;9.140;2023-09-18T12:38:01;4.17;;;1.07;;
4636;SDS011;2331;48.806;9.140;2023-09-18T12:40:30;3.53;;;1.17;;
4636;SDS011;2331;48.806;9.140;2023-09-18T12:42:58;3.03;;;1.60;;
4636;SDS011;2331;48.806;9.140;2023-09-18T12:45:26;3.07;;;1.30;;
4636;SDS011;2331;48.806;9.140;2023-09-18T12:47:55;6.13;;;1.40;;
4636;SDS011;2331;48.806;9.140;2023-09-18T12:50:24;2.70;;;1.40;;
4636;SDS011;2331;48.806;9.140;2023-09-18T12:53:05;4.03;;;1.67;;
4636;SDS011;2331;48.806;9.140;2023-09-18T12:55:34;3.40;;;1.40;;
4636;SDS011;2331;48.806;9.140;2023-09-18T12:58:12;2.87;;;1.03;;
4636;SDS011;2331;48.806;9.140;2023-09-18T13:00:44;2.33;;;1.23;;
4636;SDS011;2331;48.806;9.140;2023-09-18T13:03:12;4.90;;;1.40;;
4636;SDS011;2331;48.806;9.140;2023-09-18T13:05:40;3.20;;;1.13;;
4636;SDS011;2331;48.806;9.140;2023-09-18T13:08:07;4.23;;;1.33;;
4636;SDS011;2331;48.806;9.140;2023-09-18T13:10:43;6.07;;;1.10;;
4636;SDS011;2331;48.806;9.140;2023-09-18T13:13:17;2.73;;;1.03;;
4636;SDS011;2331;48.806;9.140;2023-09-18T13:15:44;2.80;;;1.10;;
4636;SDS011;2331;48.806;9.140;2023-09-18T13:18:12;2.53;;;1.27;;
4636;SDS011;2331;48.806;9.140;2023-09-18T13:20:41;7.50;;;1.50;;
4636;SDS011;2331;48.806;9.140;2023-09-18T13:23:10;4.03;;;1.33;;
4636;SDS011;2331;48.806;9.140;2023-09-18T13:25:37;6.77;;;1.53;;
4636;SDS011;2331;48.806;9.140;2023-09-18T13:28:09;2.67;;;1.20;;
4636;SDS011;2331;48.806;9.140;2023-09-18T13:30:37;3.00;;;1.50;;
4636;SDS011;2331;48.806;9.140;2023-09-18T13:33:08;5.20;;;1.20;;
4636;SDS011;2331;48.806;9.140;2023-09-18T13:35:36;4.60;;;1.30;;
4636;SDS011;2331;48.806;9.140;2023-09-18T13:38:05;3.50;;;1.33;;
4636;SDS011;2331;48.806;9.140;2023-09-18T13:40:33;5.10;;;0.90;;
4636;SDS011;2331;48.806;9.140;2023-09-18T13:43:01;5.70;;;1.20;;
4636;SDS011;2331;48.806;9.140;2023-09-18T13:45:28;2.30;;;1.07;;
4636;SDS011;2331;48.806;9.140;2023-09-18T13:47:55;3.20;;;1.30;;
4636;SDS011;2331;48.806;9.140;2023-09-18T13:50:22;2.43;;;1.13;;
4636;SDS011;2331;48.806;9.140;2023-09-18T13:52:52;3.57;;;1.20;;
4636;SDS011;2331;48.806;9.140;2023-09-18T13:55:20;3.10;;;1.23;;
4636;SDS011;2331;48.806;9.140;2023-09-18T13:57:47;5.60;;;1.20;;
4636;SDS011;2331;48.806;9.140;2023-09-18T14:00:15;4.13;;;1.43;;
4636;SDS011;2331;48.806;9.140;2023-09-18T14:02:43;3.07;;;1.20;;
4636;SDS011;2331;48.806;9.140;2023-09-18T14:05:10;5.77;;;1.20;;
4636;SDS011;2331;48.806;9.140;2023-09-18T14:07:37;5.10;;;1.13;;
4636;SDS011;2331;48.806;9.140;2023-09-18T14:10:05;3.60;;;1.10;;
4636;SDS011;2331;48.806;9.140;2023-09-18T14:12:34;3.37;;;1.20;;
4636;SDS011;2331;48.806;9.140;2023-09-18T14:15:00;4.77;;;1.20;;
4636;SDS011;2331;48.806;9.140;2023-09-18T14:17:28;8.07;;;1.50;;
4636;SDS011;2331;48.806;9.140;2023-09-18T14:19:54;4.67;;;1.30;;
4636;SDS011;2331;48.806;9.140;2023-09-18T14:22:21;2.73;;;1.00;;
4636;SDS011;2331;48.806;9.140;2023-09-18T14:24:48;3.90;;;1.30;;
4636;SDS011;2331;48.806;9.140;2023-09-18T14:27:15;3.33;;;1.27;;
4636;SDS011;2331;48.806;9.140;2023-09-18T14:29:43;2.67;;;1.30;;
4636;SDS011;2331;48.806;9.140;2023-09-18T14:32:10;3.00;;;1.20;;
4636;SDS011;2331;48.806;9.140;2023-09-18T14:34:37;4.30;;;1.70;;
4636;SDS011;2331;48.806;9.140;2023-09-18T14:37:04;3.47;;;1.30;;
4636;SDS011;2331;48.806;9.140;2023-09-18T14:39:31;4.17;;;1.40;;
4636;SDS011;2331;48.806;9.140;2023-09-18T14:41:57;2.97;;;1.17;;
4636;SDS011;2331;48.806;9.140;2023-09-18T14:44:25;3.67;;;1.53;;
4636;SDS011;2331;48.806;9.140;2023-09-18T14:46:54;5.53;;;1.40;;
4636;SDS011;2331;48.806;9.140;2023-09-18T14:49:20;2.87;;;1.20;;
4636;SDS011;2331;48.806;9.140;2023-09-18T14:51:47;3.90;;;1.60;;
4636;SDS011;2331;48.806;9.140;2023-09-18T14:54:18;2.77;;;1.10;;
4636;SDS011;2331;48.806;9.140;2023-09-18T14:56:44;6.10;;;1.20;;
4636;SDS011;2331;48.806;9.140;2023-09-18T14:59:12;3.00;;;1.13;;
4636;SDS011;2331;48.806;9.140;2023-09-18T15:01:39;2.97;;;1.00;;
4636;SDS011;2331;48.806;9.140;2023-09-18T15:04:09;2.30;;;1.10;;
4636;SDS011;2331;48.806;9.140;2023-09-18T15:06:36;3.17;;;1.07;;
4636;SDS011;2331;48.806;9.140;2023-09-18T15:09:02;2.80;;;1.23;;
4636;SDS011;2331;48.806;9.140;2023-09-18T15:11:29;2.80;;;1.10;;
4636;SDS011;2331;48.806;9.140;2023-09-18T15:13:56;2.67;;;1.20;;
4636;SDS011;2331;48.806;9.140;2023-09-18T15:16:22;2.70;;;1.33;;
4636;SDS011;2331;48.806;9.140;2023-09-18T15:18:49;2.67;;;1.10;;
4636;SDS011;2331;48.806;9.140;2023-09-18T15:21:17;2.60;;;1.20;;
4636;SDS011;2331;48.806;9.140;2023-09-18T15:23:45;2.63;;;1.10;;
4636;SDS011;2331;48.806;9.140;2023-09-18T15:26:13;4.27;;;1.40;;